Time;durP1;ratioP1;P1;durP2;ratioP2;P2;SDS_P1;SDS_P2;PMS_P1;PMS_P2;Temp;Humidity;BMP_temperature;BMP_pressure;BME280_temperature;BME280_humidity;BME280_pressure;Samples;Min_cycle;Max_cycle;Signal;HPM_P1;HPM_P2
2022/07/20 00:02:15;;;;;;;4.80;3.75;;;24.20;91.30;;;;;;4785745;29;20431;-90
2022/07/20 00:04:41;;;;;;;5.40;3.05;;;24.20;91.20;;;;;;4782184;29;20205;-90
2022/07/20 00:07:06;;;;;;;6.25;3.20;;;24.20;91.10;;;;;;4801936;29;20054;-91
2022/07/20 00:12:20;;;;;;;7.38;3.20;;;24.20;91.30;;;;;;4842389;29;20026;-89
2022/07/20 00:14:45;;;;;;;6.80;3.22;;;24.20;91.20;;;;;;4846341;29;20046;-94
2022/07/20 00:17:13;;;;;;;4.22;3.28;;;24.10;91.20;;;;;;4818945;29;20026;-93
2022/07/20 00:19:39;;;;;;;3.60;3.30;;;24.10;91.30;;;;;;4833091;29;20098;-92
2022/07/20 00:22:05;;;;;;;5.72;3.13;;;23.90;91.40;;;;;;4818101;29;20041;-92
2022/07/20 00:24:30;;;;;;;4.10;3.30;;;23.80;91.60;;;;;;4817908;29;20104;-89
2022/07/20 00:26:56;;;;;;;4.13;3.60;;;23.80;91.60;;;;;;4802480;29;20053;-90
2022/07/20 00:29:22;;;;;;;6.30;3.15;;;23.60;91.70;;;;;;4807848;29;20050;-90
2022/07/20 00:31:47;;;;;;;4.57;3.30;;;23.60;91.70;;;;;;4796721;29;20517;-90
2022/07/20 00:34:13;;;;;;;4.28;3.17;;;23.60;91.90;;;;;;4795175;29;20074;-90
2022/07/20 00:36:39;;;;;;;5.82;3.22;;;23.50;92.00;;;;;;4796024;29;20411;-90
2022/07/20 00:39:04;;;;;;;4.55;2.90;;;23.40;92.10;;;;;;4807913;29;20484;-91
2022/07/20 00:41:30;;;;;;;6.60;3.22;;;23.40;92.10;;;;;;4806152;29;20088;-90
2022/07/20 00:44:07;;;;;;;4.00;3.30;;;23.30;92.20;;;;;;4785842;29;20506;-88
2022/07/20 00:46:38;;;;;;;7.70;3.45;;;23.20;92.30;;;;;;4775787;29;20059;-91
2022/07/20 00:51:32;;;;;;;4.25;3.40;;;23.10;92.50;;;;;;4843497;29;20058;-90
2022/07/20 00:53:58;;;;;;;7.57;3.40;;;23.00;92.90;;;;;;4806794;29;20050;-90
2022/07/20 00:56:26;;;;;;;3.20;2.92;;;23.00;93.10;;;;;;4835982;29;20058;-90
2022/07/20 00:58:52;;;;;;;5.40;3.42;;;22.80;93.00;;;;;;4833974;29;20049;-90
2022/07/20 01:01:20;;;;;;;4.80;3.42;;;22.90;93.40;;;;;;4820163;29;20057;-90
2022/07/20 01:03:54;;;;;;;4.40;3.17;;;22.70;93.50;;;;;;4795607;29;20114;-90
2022/07/20 01:06:20;;;;;;;4.88;3.45;;;22.70;93.40;;;;;;4805933;29;20078;-89
2022/07/20 01:08:48;;;;;;;3.58;3.20;;;22.60;93.60;;;;;;4783288;29;20407;-90
2022/07/20 01:11:16;;;;;;;5.93;3.55;;;22.80;93.60;;;;;;4846782;29;20053;-90
2022/07/20 01:13:42;;;;;;;4.53;3.28;;;22.50;94.20;;;;;;4831870;29;20513;-89
2022/07/20 01:16:08;;;;;;;3.65;3.13;;;22.50;93.80;;;;;;4823555;29;20054;-89
2022/07/20 01:18:34;;;;;;;4.95;3.63;;;22.50;94.20;;;;;;4798338;29;20558;-89
2022/07/20 01:21:04;;;;;;;9.40;3.40;;;22.30;94.00;;;;;;4809682;29;20077;-89
2022/07/20 01:23:29;;;;;;;5.60;3.33;;;22.20;93.80;;;;;;4805189;29;20057;-90
2022/07/20 01:25:56;;;;;;;6.72;3.50;;;22.20;94.20;;;;;;4812260;29;20137;-89
2022/07/20 01:28:22;;;;;;;4.13;3.45;;;21.60;93.60;;;;;;4794118;29;20054;-89
2022/07/20 01:30:56;;;;;;;3.45;3.15;;;22.10;94.40;;;;;;4810846;29;20043;-90
2022/07/20 01:33:25;;;;;;;4.65;3.28;;;20.80;94.20;;;;;;4835982;29;20038;-93
2022/07/20 01:35:50;;;;;;;4.53;3.92;;;22.00;94.60;;;;;;4846400;29;20073;-91
2022/07/20 01:38:21;;;;;;;5.47;3.40;;;21.90;94.30;;;;;;4843023;29;20034;-90
2022/07/20 01:40:47;;;;;;;4.32;3.92;;;21.90;94.20;;;;;;4873821;29;20049;-93
2022/07/20 01:43:13;;;;;;;3.70;3.30;;;21.90;94.80;;;;;;4833100;29;20131;-89
2022/07/20 01:45:39;;;;;;;6.25;3.70;;;21.80;94.50;;;;;;4787693;29;20054;-90
2022/07/20 01:48:05;;;;;;;6.13;3.80;;;21.70;94.50;;;;;;4810001;29;20505;-90
2022/07/20 01:50:31;;;;;;;3.70;3.40;;;21.70;95.00;;;;;;4820401;29;20049;-92
2022/07/20 01:52:59;;;;;;;10.18;3.88;;;21.70;95.20;;;;;;4863111;29;20102;-91
2022/07/20 01:55:37;;;;;;;4.00;3.22;;;21.70;95.50;;;;;;4831720;29;20034;-92
2022/07/20 01:58:03;;;;;;;3.70;3.33;;;21.70;95.00;;;;;;4833745;29;20056;-93
2022/07/20 02:00:32;;;;;;;4.20;3.40;;;21.70;94.70;;;;;;4818136;29;20411;-89
2022/07/20 02:02:57;;;;;;;7.82;3.72;;;21.80;94.60;;;;;;4821108;29;20047;-90
2022/07/20 02:05:23;;;;;;;5.55;3.70;;;21.80;94.30;;;;;;4808747;29;20479;-90
2022/07/20 02:07:49;;;;;;;5.47;3.63;;;21.70;94.70;;;;;;4797492;29;20049;-89
2022/07/20 02:10:15;;;;;;;3.95;3.38;;;21.80;94.40;;;;;;4786987;29;20148;-89
2022/07/20 02:12:41;;;;;;;5.50;3.83;;;21.90;94.50;;;;;;4812534;29;20046;-92
2022/07/20 02:15:10;;;;;;;4.70;3.83;;;21.80;94.70;;;;;;4836027;29;20522;-92
2022/07/20 02:17:38;;;;;;;5.20;3.90;;;21.80;94.20;;;;;;4805999;29;20050;-90
2022/07/20 02:20:07;;;;;;;5.40;3.25;;;21.60;94.70;;;;;;4827797;29;20132;-90
2022/07/20 02:22:38;;;;;;;6.70;3.47;;;21.60;94.50;;;;;;4812820;29;20128;-91
2022/07/20 02:25:08;;;;;;;5.15;3.90;;;21.50;95.10;;;;;;4825229;29;20070;-91
2022/07/20 02:27:34;;;;;;;3.80;3.50;;;21.80;94.60;;;;;;4803760;29;20050;-91
2022/07/20 02:30:03;;;;;;;7.07;3.60;;;21.40;95.10;;;;;;4796191;29;20048;-90
2022/07/20 02:32:31;;;;;;;6.40;4.00;;;21.50;94.80;;;;;;4804107;29;20150;-92
2022/07/20 02:34:58;;;;;;;4.55;3.97;;;21.50;94.40;;;;;;4815038;29;20056;-89
2022/07/20 02:37:25;;;;;;;4.22;3.50;;;21.50;94.20;;;;;;4813204;29;20062;-90
2022/07/20 02:39:50;;;;;;;5.50;3.50;;;20.80;94.40;;;;;;4810954;29;20046;-89
2022/07/20 02:42:19;;;;;;;5.65;3.78;;;21.50;94.50;;;;;;4810601;29;20137;-89
2022/07/20 02:44:46;;;;;;;5.35;3.63;;;20.10;94.20;;;;;;4810610;29;20054;-89
2022/07/20 02:47:20;;;;;;;6.22;3.45;;;21.60;94.50;;;;;;4826270;29;20049;-90
2022/07/20 02:49:56;;;;;;;5.43;3.55;;;21.60;94.90;;;;;;4823102;29;20422;-89
2022/07/20 02:52:22;;;;;;;4.75;3.35;;;21.50;94.00;;;;;;4805570;29;20059;-90
2022/07/20 02:54:53;;;;;;;6.72;3.60;;;21.60;94.10;;;;;;4810794;29;20042;-90
2022/07/20 02:57:21;;;;;;;7.82;3.63;;;21.50;94.40;;;;;;4796667;29;20060;-89
2022/07/20 02:59:47;;;;;;;6.05;3.55;;;21.60;94.50;;;;;;4838142;29;20135;-92
2022/07/20 03:02:13;;;;;;;8.00;3.72;;;21.60;94.20;;;;;;4815376;29;20035;-92
2022/07/20 03:04:42;;;;;;;11.15;3.50;;;21.40;94.50;;;;;;4834095;29;20058;-88
2022/07/20 03:07:08;;;;;;;8.13;3.88;;;21.40;94.30;;;;;;4800760;29;20062;-91
2022/07/20 03:09:44;;;;;;;;;;;;;;;;;;;;;
2022/07/20 03:12:12;;;;;;;11.70;3.95;;;21.20;94.60;;;;;;4814784;29;20050;-94
2022/07/20 03:14:41;;;;;;;7.22;3.33;;;21.20;94.80;;;;;;4819793;29;20053;-92
2022/07/20 03:17:09;;;;;;;8.25;3.40;;;21.30;94.80;;;;;;4830046;29;20121;-93
2022/07/20 03:19:40;;;;;;;9.73;3.97;;;21.20;94.70;;;;;;4818081;29;20052;-92
2022/07/20 03:22:12;;;;;;;6.53;3.90;;;21.50;94.60;;;;;;4784403;29;20058;-92
2022/07/20 03:24:46;;;;;;;9.75;4.22;;;21.50;94.20;;;;;;4785799;29;20046;-92
2022/07/20 03:27:12;;;;;;;7.82;3.50;;;21.40;94.50;;;;;;4802397;29;20110;-92
2022/07/20 03:29:41;;;;;;;5.00;3.80;;;21.50;94.60;;;;;;4824007;29;20031;-92
2022/07/20 03:32:09;;;;;;;7.50;3.47;;;21.20;94.30;;;;;;4861291;29;20030;-93
2022/07/20 03:34:44;;;;;;;5.45;3.50;;;21.20;94.60;;;;;;4849346;29;20054;-93
2022/07/20 03:37:10;;;;;;;4.63;3.55;;;21.30;94.80;;;;;;4806517;29;20038;-93
2022/07/20 03:39:36;;;;;;;5.07;4.10;;;21.10;94.90;;;;;;4789762;29;20118;-92
2022/07/20 03:42:04;;;;;;;6.18;4.10;;;21.30;95.30;;;;;;4814287;29;20037;-93
2022/07/20 03:44:33;;;;;;;4.72;3.75;;;21.00;95.10;;;;;;4824340;29;20045;-93
2022/07/20 03:47:02;;;;;;;4.93;4.03;;;21.10;94.90;;;;;;4800818;29;20540;-92
2022/07/20 03:49:33;;;;;;;6.20;4.57;;;21.00;94.90;;;;;;4812886;29;20062;-92
2022/07/20 03:52:01;;;;;;;5.70;3.88;;;20.60;94.70;;;;;;4799985;29;20114;-92
2022/07/20 03:54:39;;;;;;;5.13;3.50;;;19.90;94.30;;;;;;4799969;29;20073;-90
2022/07/20 03:57:10;;;;;;;5.90;3.90;;;20.20;94.50;;;;;;4799053;29;20100;-91
2022/07/20 03:59:44;;;;;;;6.55;4.18;;;19.80;94.60;;;;;;4815141;29;20062;-89
2022/07/20 04:02:13;;;;;;;6.22;3.80;;;21.30;94.70;;;;;;4797554;29;20136;-91
2022/07/20 04:04:42;;;;;;;6.35;3.95;;;21.20;95.00;;;;;;4821964;29;20054;-92
2022/07/20 04:07:15;;;;;;;9.10;4.40;;;21.20;95.10;;;;;;4813711;29;20050;-93
2022/07/20 04:09:47;;;;;;;7.25;4.18;;;21.40;94.50;;;;;;4797941;29;20026;-92
2022/07/20 04:12:17;;;;;;;5.88;4.15;;;21.20;94.60;;;;;;4804372;29;20046;-92
2022/07/20 04:14:56;;;;;;;4.95;3.55;;;21.20;94.90;;;;;;4828451;29;20054;-91
2022/07/20 04:17:25;;;;;;;9.27;5.57;;;21.20;94.70;;;;;;4777247;29;20140;-91
2022/07/20 04:19:56;;;;;;;3.95;3.60;;;21.20;95.40;;;;;;4800175;29;20088;-93
2022/07/20 04:22:25;;;;;;;6.82;3.60;;;21.20;95.40;;;;;;4809381;29;20042;-93
2022/07/20 04:24:56;;;;;;;4.10;3.70;;;21.20;95.70;;;;;;4804305;29;20129;-93
2022/07/20 04:27:22;;;;;;;6.18;4.25;;;21.70;95.50;;;;;;4803438;29;20038;-93
2022/07/20 04:30:16;;;;;;;6.60;3.63;;;21.40;95.20;;;;;;4828290;29;20049;-92
2022/07/20 04:32:50;;;;;;;10.40;4.50;;;20.70;94.90;;;;;;4824782;29;20092;-92
2022/07/20 04:38:25;;;;;;;6.25;3.90;;;21.30;94.50;;;;;;4842311;29;20089;-91
2022/07/20 04:40:54;;;;;;;6.53;3.92;;;21.80;94.50;;;;;;4807883;29;20053;-92
2022/07/20 04:43:35;;;;;;;;;;;;;;;;;;;;;
2022/07/20 04:46:31;;;;;;;4.35;3.60;;;22.40;93.90;;;;;;4805853;29;20063;-93
2022/07/20 04:49:13;;;;;;;;;;;;;;;;;;;;;
2022/07/20 04:52:05;;;;;;;3.95;3.65;;;22.20;93.60;;;;;;4839870;29;20050;-94
2022/07/20 04:58:21;;;;;;;4.43;3.90;;;25.60;92.20;;;;;;4821877;29;20089;-93
2022/07/20 05:01:13;;;;;;;5.60;3.85;;;26.50;91.30;;;;;;4825930;29;20559;-95
2022/07/20 05:04:14;;;;;;;;;;;;;;;;;;;;;
2022/07/20 05:09:43;;;;;;;7.40;3.92;;;27.30;90.60;;;;;;4877701;23;20058;-94
2022/07/20 05:12:19;;;;;;;4.13;3.72;;;27.90;91.10;;;;;;4844994;29;20037;-93
2022/07/20 05:15:25;;;;;;;;;;;;;;;;;;;;;
2022/07/20 05:18:29;;;;;;;9.10;4.18;;;26.40;90.00;;;;;;4825710;29;20050;-94
2022/07/20 05:21:04;;;;;;;4.50;3.45;;;28.30;90.90;;;;;;4822251;29;20065;-92
2022/07/20 05:23:35;;;;;;;5.63;3.63;;;28.50;89.20;;;;;;4802971;29;20061;-93
2022/07/20 05:26:28;;;;;;;3.40;3.10;;;29.80;89.60;;;;;;4822020;29;20498;-96
2022/07/20 05:29:16;;;;;;;3.55;3.22;;;29.60;88.80;;;;;;4827394;29;20053;-96
2022/07/20 05:32:27;;;;;;;5.35;3.40;;;29.50;89.70;;;;;;4793588;29;20061;-96
2022/07/20 05:35:04;;;;;;;6.88;3.70;;;29.40;88.20;;;;;;4805834;29;20102;-95
2022/07/20 05:37:32;;;;;;;5.35;3.83;;;30.40;88.90;;;;;;4781015;29;20042;-94
2022/07/20 05:40:24;;;;;;;4.45;3.50;;;30.70;88.20;;;;;;4793388;29;20055;-94
2022/07/20 05:42:51;;;;;;;5.32;3.78;;;30.20;87.60;;;;;;4825567;29;20060;-91
2022/07/20 05:45:19;;;;;;;6.18;4.03;;;29.90;89.10;;;;;;4800245;29;20049;-94
2022/07/20 05:47:45;;;;;;;4.55;3.38;;;30.60;87.60;;;;;;4820327;29;20042;-93
2022/07/20 05:50:22;;;;;;;5.28;3.75;;;30.60;88.90;;;;;;4819939;29;20030;-92
2022/07/20 05:52:50;;;;;;;6.25;3.92;;;30.70;88.00;;;;;;4835444;29;20046;-95
2022/07/20 05:55:32;;;;;;;6.18;3.92;;;31.60;85.40;;;;;;4822932;29;20074;-93
2022/07/20 05:58:08;;;;;;;3.78;3.40;;;31.10;87.40;;;;;;4816249;29;20113;-92
2022/07/20 06:00:37;;;;;;;6.07;3.88;;;31.20;88.60;;;;;;4830168;29;20049;-92
2022/07/20 06:03:07;;;;;;;5.72;3.72;;;31.70;86.40;;;;;;4827349;29;20045;-91
2022/07/20 06:05:35;;;;;;;4.38;3.95;;;31.40;86.80;;;;;;4811584;29;20038;-90
2022/07/20 06:08:01;;;;;;;4.85;3.67;;;32.20;86.40;;;;;;4810196;29;20058;-93
2022/07/20 06:10:38;;;;;;;4.43;3.70;;;32.10;87.10;;;;;;4810870;29;20050;-93
2022/07/20 06:13:03;;;;;;;7.05;4.28;;;30.70;85.80;;;;;;4821612;29;20060;-91
2022/07/20 06:15:29;;;;;;;4.95;3.80;;;32.30;85.80;;;;;;4805640;29;20034;-91
2022/07/20 06:18:03;;;;;;;6.03;4.10;;;32.90;85.80;;;;;;4792620;29;20055;-93
2022/07/20 06:20:31;;;;;;;6.47;4.43;;;33.30;85.80;;;;;;4804733;29;20038;-94
2022/07/20 06:23:00;;;;;;;5.43;3.70;;;32.90;84.60;;;;;;4815741;29;20061;-94
2022/07/20 06:25:28;;;;;;;5.28;3.55;;;32.90;84.20;;;;;;4797827;29;20061;-91
2022/07/20 06:28:01;;;;;;;4.00;3.70;;;33.00;85.00;;;;;;4769615;29;20089;-92
2022/07/20 06:30:27;;;;;;;5.30;3.83;;;33.70;84.20;;;;;;4787519;29;20054;-92
2022/07/20 06:32:58;;;;;;;5.03;3.65;;;33.50;85.10;;;;;;4831822;29;20494;-92
2022/07/20 06:35:31;;;;;;;5.60;4.10;;;34.00;84.20;;;;;;4850699;29;20030;-93
2022/07/20 06:37:58;;;;;;;6.63;3.90;;;33.40;83.50;;;;;;4821204;29;20054;-94
2022/07/20 06:40:30;;;;;;;4.50;3.50;;;33.60;84.60;;;;;;4830350;29;20083;-94
2022/07/20 06:43:06;;;;;;;4.88;3.58;;;34.10;83.70;;;;;;4816855;29;20483;-92
2022/07/20 06:45:31;;;;;;;4.35;3.85;;;32.70;82.30;;;;;;4853625;29;20065;-93
2022/07/20 06:48:00;;;;;;;5.32;3.83;;;32.70;83.00;;;;;;4838346;29;20038;-95
2022/07/20 06:50:30;;;;;;;3.95;3.65;;;34.00;83.10;;;;;;4815130;29;20097;-92
2022/07/20 06:52:58;;;;;;;4.30;3.40;;;33.60;82.30;;;;;;4813722;29;20050;-91
2022/07/20 06:55:36;;;;;;;6.10;4.03;;;34.00;82.70;;;;;;4801124;29;20407;-92
2022/07/20 06:58:09;;;;;;;4.82;3.80;;;34.40;83.40;;;;;;4818831;29;20054;-89
2022/07/20 07:00:38;;;;;;;3.85;3.55;;;34.60;82.90;;;;;;4803283;29;20051;-93
2022/07/20 07:03:04;;;;;;;6.22;3.67;;;34.70;82.80;;;;;;4796275;29;20190;-93
2022/07/20 07:05:40;;;;;;;6.35;3.90;;;34.30;82.80;;;;;;4802297;29;20078;-91
2022/07/20 07:08:11;;;;;;;6.10;3.92;;;33.50;81.60;;;;;;4802976;29;20062;-91
2022/07/20 07:10:40;;;;;;;4.63;3.70;;;34.90;81.60;;;;;;4800281;29;20042;-90
2022/07/20 07:13:13;;;;;;;4.28;3.85;;;36.00;81.60;;;;;;4802276;29;20034;-95
2022/07/20 07:15:44;;;;;;;5.82;4.10;;;34.60;82.10;;;;;;4822759;29;20127;-91
2022/07/20 07:18:10;;;;;;;5.30;3.92;;;32.90;80.50;;;;;;4792490;29;20136;-93
2022/07/20 07:20:42;;;;;;;6.50;3.90;;;34.10;81.70;;;;;;4817106;29;20117;-92
2022/07/20 07:23:10;;;;;;;4.38;3.97;;;34.90;82.00;;;;;;4816672;29;20053;-90
2022/07/20 07:25:36;;;;;;;4.38;3.97;;;34.20;81.50;;;;;;4817168;29;20488;-92
2022/07/20 07:28:02;;;;;;;6.07;4.05;;;35.00;81.70;;;;;;4800656;29;20077;-93
2022/07/20 07:30:28;;;;;;;5.97;4.18;;;34.70;81.80;;;;;;4800491;29;20082;-91
2022/07/20 07:32:56;;;;;;;5.10;4.50;;;34.30;82.40;;;;;;4815944;29;20054;-92
2022/07/20 07:35:25;;;;;;;6.03;4.25;;;34.00;82.20;;;;;;4791270;29;20046;-92
2022/07/20 07:37:55;;;;;;;5.10;4.28;;;34.70;82.50;;;;;;4806501;29;20050;-91
2022/07/20 07:40:23;;;;;;;4.75;4.32;;;35.40;82.80;;;;;;4765340;29;20060;-92
2022/07/20 07:42:56;;;;;;;4.38;3.85;;;35.20;82.80;;;;;;4767383;29;20054;-92
2022/07/20 07:45:26;;;;;;;8.93;4.85;;;35.50;82.60;;;;;;4798493;29;20064;-93
2022/07/20 07:48:02;;;;;;;;;;;;;;;;;;;;;
2022/07/20 07:50:28;;;;;;;6.53;4.85;;;35.40;82.90;;;;;;4822817;29;20049;-92
2022/07/20 07:52:57;;;;;;;6.32;4.88;;;34.30;82.80;;;;;;4814172;29;20159;-90
2022/07/20 07:55:22;;;;;;;11.80;5.30;;;35.30;82.90;;;;;;4782668;29;20049;-90
2022/07/20 07:57:51;;;;;;;10.15;4.93;;;35.00;83.70;;;;;;4796873;29;20530;-91
2022/07/20 08:00:20;;;;;;;7.10;5.45;;;35.20;84.00;;;;;;4801231;29;20061;-91
2022/07/20 08:02:48;;;;;;;9.77;4.63;;;35.30;83.80;;;;;;4801327;29;20471;-91
2022/07/20 08:05:16;;;;;;;6.95;5.25;;;35.20;84.20;;;;;;4817047;29;20050;-91
2022/07/20 08:07:50;;;;;;;7.22;5.50;;;35.20;84.20;;;;;;4808547;29;20069;-92
2022/07/20 08:10:19;;;;;;;6.47;5.20;;;35.60;84.40;;;;;;4803089;29;20517;-90
2022/07/20 08:12:47;;;;;;;7.88;6.10;;;35.40;85.30;;;;;;4817357;29;20054;-91
2022/07/20 08:15:22;;;;;;;8.65;6.68;;;35.00;85.60;;;;;;4820513;29;20486;-92
2022/07/20 08:17:55;;;;;;;11.48;6.25;;;34.90;86.10;;;;;;4798122;29;20050;-89
2022/07/20 08:20:22;;;;;;;8.32;6.28;;;35.00;86.10;;;;;;4788974;29;20068;-91
2022/07/20 08:22:52;;;;;;;11.20;6.88;;;35.00;86.10;;;;;;4818104;29;20030;-91
2022/07/20 08:25:20;;;;;;;8.88;6.95;;;35.40;87.10;;;;;;4822138;29;20046;-92
2022/07/20 08:27:48;;;;;;;10.30;7.72;;;34.50;87.90;;;;;;4822460;29;20058;-90
2022/07/20 08:30:17;;;;;;;10.95;8.18;;;34.50;87.80;;;;;;4829090;29;20049;-89
2022/07/20 08:33:02;;;;;;;11.50;8.85;;;34.30;88.50;;;;;;4808999;29;20097;-88
2022/07/20 08:35:37;;;;;;;10.77;8.18;;;34.90;88.50;;;;;;4833955;29;20109;-91
2022/07/20 08:38:06;;;;;;;10.32;9.32;;;34.90;90.10;;;;;;4832335;29;20026;-89
2022/07/20 08:40:36;;;;;;;11.60;9.98;;;34.80;89.20;;;;;;4833867;29;20046;-89
2022/07/20 08:43:02;;;;;;;14.90;10.55;;;34.40;89.30;;;;;;4833984;29;20042;-92
2022/07/20 08:45:31;;;;;;;15.07;12.05;;;35.00;90.10;;;;;;4805101;29;20058;-88
2022/07/20 08:48:08;;;;;;;14.35;12.95;;;34.30;90.80;;;;;;4798914;29;20074;-90
2022/07/20 08:50:34;;;;;;;14.07;12.77;;;34.40;91.30;;;;;;4799872;29;20042;-89
2022/07/20 08:53:00;;;;;;;18.23;14.13;;;34.50;91.50;;;;;;4815873;29;20085;-90
2022/07/20 08:55:26;;;;;;;15.95;14.30;;;34.40;91.50;;;;;;4799007;29;20137;-92
2022/07/20 08:58:00;;;;;;;19.80;15.02;;;34.60;91.90;;;;;;4814469;29;20073;-91
2022/07/20 09:00:26;;;;;;;16.08;14.43;;;33.70;91.10;;;;;;4797441;29;20506;-92
2022/07/20 09:03:03;;;;;;;18.27;15.88;;;34.90;91.70;;;;;;4800550;29;20137;-91
2022/07/20 09:05:30;;;;;;;18.70;16.70;;;34.70;91.80;;;;;;4807977;29;20046;-92
2022/07/20 09:07:57;;;;;;;18.77;16.83;;;34.80;91.70;;;;;;4796971;29;20061;-92
2022/07/20 09:10:35;;;;;;;17.98;15.95;;;34.40;92.00;;;;;;4791015;29;20056;-93
2022/07/20 09:13:06;;;;;;;20.42;16.98;;;34.70;92.50;;;;;;4799301;29;20042;-92
2022/07/20 09:15:42;;;;;;;21.20;16.42;;;34.40;92.20;;;;;;4828458;29;20062;-92
2022/07/20 09:18:21;;;;;;;17.92;16.02;;;34.40;92.50;;;;;;4824277;29;20058;-93
2022/07/20 09:21:14;;;;;;;18.60;16.67;;;35.00;92.50;;;;;;4821124;29;20424;-96
2022/07/20 09:23:40;;;;;;;;;;;35.00;92.60;;;;;;4809289;29;20050;-94
2022/07/20 09:26:12;;;;;;;20.80;17.60;;;34.40;92.30;;;;;;4818667;29;19931;-92
2022/07/20 09:28:41;;;;;;;19.40;16.92;;;36.10;92.70;;;;;;4803273;29;20107;-93
2022/07/20 09:31:18;;;;;;;20.27;16.50;;;34.30;92.10;;;;;;4823610;29;20057;-94
2022/07/20 09:33:58;;;;;;;19.42;16.85;;;32.90;91.70;;;;;;4806490;29;20058;-93
2022/07/20 09:36:28;;;;;;;19.27;17.20;;;34.70;92.00;;;;;;4796247;29;20105;-92
2022/07/20 09:38:56;;;;;;;19.48;17.35;;;34.90;92.50;;;;;;4779050;29;20097;-93
2022/07/20 09:41:28;;;;;;;20.90;17.38;;;34.10;92.40;;;;;;4785737;29;20134;-94
2022/07/20 09:43:56;;;;;;;21.37;17.43;;;35.50;92.30;;;;;;4809830;29;20111;-93
2022/07/20 09:46:34;;;;;;;22.33;17.00;;;33.80;91.90;;;;;;4803163;29;20057;-91
2022/07/20 09:49:13;;;;;;;18.95;17.10;;;33.00;91.60;;;;;;4799045;29;20139;-93
2022/07/20 09:51:50;;;;;;;;;;;;;;;;;;;;;
2022/07/20 09:54:22;;;;;;;23.95;18.35;;;33.70;92.50;;;;;;4812141;29;20042;-91
2022/07/20 09:56:49;;;;;;;26.83;20.00;;;33.90;92.40;;;;;;4854141;29;20038;-95
2022/07/20 09:59:16;;;;;;;22.05;18.83;;;33.70;92.20;;;;;;4809213;29;20035;-93
2022/07/20 10:02:02;;;;;;;20.40;18.27;;;33.90;92.30;;;;;;4819962;29;20054;-92
2022/07/20 10:04:28;;;;;;;19.77;17.88;;;33.40;92.10;;;;;;4837787;29;20061;-92
2022/07/20 10:06:54;;;;;;;24.27;17.90;;;33.60;91.20;;;;;;4804272;29;20118;-92
2022/07/20 10:09:29;;;;;;;20.95;18.15;;;33.80;91.20;;;;;;4823760;29;20065;-94
2022/07/20 10:11:55;;;;;;;22.45;18.05;;;33.50;90.90;;;;;;4816123;29;20207;-93
2022/07/20 10:14:23;;;;;;;20.55;18.27;;;33.40;90.70;;;;;;4795602;29;20046;-91
2022/07/20 10:16:57;;;;;;;19.98;17.42;;;33.50;91.00;;;;;;4812945;29;20064;-93
2022/07/20 10:19:48;;;;;;;21.67;18.27;;;33.60;91.00;;;;;;4819554;29;20094;-91
2022/07/20 10:22:16;;;;;;;19.35;17.13;;;33.10;91.10;;;;;;4812253;29;20035;-92
2022/07/20 10:24:47;;;;;;;18.23;16.30;;;33.10;91.50;;;;;;4823550;29;20050;-92
2022/07/20 10:27:35;;;;;;;19.67;15.20;;;33.70;90.90;;;;;;4828604;29;20062;-94
2022/07/20 10:30:15;;;;;;;19.17;15.50;;;33.30;91.20;;;;;;4829298;29;20046;-92
2022/07/20 10:32:50;;;;;;;17.20;15.40;;;33.40;90.70;;;;;;4824055;29;20046;-94
2022/07/20 10:35:27;;;;;;;16.55;14.73;;;33.00;90.30;;;;;;4819204;29;20049;-91
2022/07/20 10:37:53;;;;;;;18.45;15.52;;;33.30;90.20;;;;;;4790916;29;20129;-93
2022/07/20 10:41:31;;;;;;;16.85;15.05;;;33.00;90.80;;;;;;4799769;29;20060;-96
2022/07/20 10:43:28;;;;;;;16.65;15.00;;;33.20;90.00;;;;;;4820489;29;20043;-94
2022/07/20 10:45:59;;;;;;;15.18;13.57;;;33.20;90.40;;;;;;4783388;29;20046;-93
2022/07/20 10:48:27;;;;;;;14.82;13.48;;;33.40;90.40;;;;;;4781359;29;20189;-92
2022/07/20 10:50:55;;;;;;;17.48;14.18;;;33.50;90.20;;;;;;4810372;29;20109;-90
2022/07/20 10:53:42;;;;;;;16.92;13.70;;;33.50;90.30;;;;;;4797942;29;20049;-93
2022/07/20 10:56:10;;;;;;;15.18;13.57;;;33.90;89.70;;;;;;4812961;29;20053;-93
2022/07/20 10:58:45;;;;;;;14.57;12.90;;;33.90;89.40;;;;;;4813551;29;20054;-92
2022/07/20 11:01:12;;;;;;;14.55;12.95;;;34.00;89.80;;;;;;4800922;29;21120;-95
2022/07/20 11:03:48;;;;;;;13.75;12.32;;;33.40;90.00;;;;;;4798095;29;20081;-95
2022/07/20 11:06:14;;;;;;;14.80;12.32;;;33.50;90.00;;;;;;4802725;29;20399;-90
2022/07/20 11:08:58;;;;;;;13.93;12.52;;;33.80;90.40;;;;;;4795775;29;20069;-90
2022/07/20 11:11:40;;;;;;;13.82;11.23;;;34.00;89.50;;;;;;4784363;29;20081;-90
2022/07/20 11:14:06;;;;;;;12.80;10.73;;;33.70;88.50;;;;;;4813607;29;20090;-92
2022/07/20 11:16:33;;;;;;;13.73;10.10;;;33.10;88.90;;;;;;4796597;29;20096;-91
2022/07/20 11:19:00;;;;;;;13.60;10.45;;;32.10;87.40;;;;;;4819028;29;20045;-92
2022/07/20 11:21:35;;;;;;;11.57;10.38;;;32.50;88.40;;;;;;4814122;29;20484;-93
2022/07/20 11:24:01;;;;;;;11.35;8.93;;;33.30;89.40;;;;;;4812905;29;20065;-94
2022/07/20 11:26:30;;;;;;;13.18;10.43;;;33.00;90.00;;;;;;4803523;29;20053;-93
2022/07/20 11:28:57;;;;;;;11.68;9.65;;;33.10;90.20;;;;;;4853508;29;20069;-92
2022/07/20 11:31:27;;;;;;;11.93;9.57;;;33.00;90.00;;;;;;4837581;29;20113;-91
2022/07/20 11:33:53;;;;;;;12.60;10.48;;;33.20;90.60;;;;;;4808631;29;20046;-94
2022/07/20 11:36:26;;;;;;;15.45;10.13;;;33.00;90.40;;;;;;4826822;29;20201;-88
2022/07/20 11:38:57;;;;;;;11.00;8.77;;;33.30;90.80;;;;;;4840580;29;20057;-88
2022/07/20 11:41:29;;;;;;;9.70;8.80;;;33.20;90.80;;;;;;4832575;29;20135;-89
2022/07/20 11:43:55;;;;;;;15.05;9.40;;;33.10;90.20;;;;;;4846330;29;20048;-86
2022/07/20 11:46:22;;;;;;;11.98;9.10;;;33.10;90.20;;;;;;4827287;29;20108;-85
2022/07/20 11:49:04;;;;;;;11.80;9.57;;;32.90;91.00;;;;;;4828114;29;20118;-86
2022/07/20 11:51:31;;;;;;;12.20;9.38;;;32.80;90.50;;;;;;4814316;29;20053;-87
2022/07/20 11:53:56;;;;;;;11.73;9.23;;;32.40;91.00;;;;;;4817084;29;20085;-85
2022/07/20 11:56:25;;;;;;;9.98;8.98;;;33.00;90.90;;;;;;4833332;29;20085;-85
2022/07/20 11:58:55;;;;;;;11.45;9.05;;;32.80;90.60;;;;;;4831750;29;20065;-88
2022/07/20 12:01:29;;;;;;;11.75;9.68;;;33.10;90.70;;;;;;4828358;29;20057;-87
2022/07/20 12:04:00;;;;;;;11.23;9.15;;;32.70;90.40;;;;;;4823422;29;20090;-87
2022/07/20 12:06:27;;;;;;;12.27;9.93;;;32.70;90.60;;;;;;4803355;29;20061;-84
2022/07/20 12:09:18;;;;;;;10.93;9.20;;;32.30;90.30;;;;;;4809941;29;20061;-85
2022/07/20 12:12:06;;;;;;;13.25;9.32;;;32.40;90.90;;;;;;4807089;29;20112;-86
2022/07/20 12:14:42;;;;;;;10.35;8.93;;;32.50;90.40;;;;;;4841362;29;20074;-86
2022/07/20 12:17:32;;;;;;;15.18;8.95;;;32.40;90.50;;;;;;4837951;29;20159;-87
2022/07/20 12:19:58;;;;;;;10.88;8.98;;;32.60;90.50;;;;;;4826000;29;20061;-87
2022/07/20 12:22:26;;;;;;;13.00;9.40;;;32.30;90.30;;;;;;4798598;29;20627;-84
2022/07/20 12:25:10;;;;;;;10.02;8.70;;;32.60;90.60;;;;;;4829269;29;20050;-85
2022/07/20 12:27:37;;;;;;;11.88;9.38;;;32.50;90.30;;;;;;4842037;29;20054;-88
2022/07/20 12:30:23;;;;;;;11.52;8.88;;;32.40;90.40;;;;;;4819760;29;20130;-87
2022/07/20 12:33:04;;;;;;;12.63;8.73;;;32.30;90.70;;;;;;4845862;29;20053;-85
2022/07/20 12:35:30;;;;;;;10.77;8.00;;;32.60;90.80;;;;;;4827998;29;20495;-84
2022/07/20 12:37:56;;;;;;;10.23;8.02;;;32.60;90.30;;;;;;4792950;29;20053;-85
2022/07/20 12:40:44;;;;;;;10.20;7.78;;;32.40;90.70;;;;;;4820715;29;20058;-86
2022/07/20 12:43:28;;;;;;;10.23;7.13;;;32.50;90.10;;;;;;4808408;29;20463;-86
2022/07/20 12:45:55;;;;;;;8.38;7.13;;;32.70;89.40;;;;;;4844735;29;20452;-86
2022/07/20 12:48:27;;;;;;;8.40;6.40;;;32.70;89.30;;;;;;4824101;29;20042;-87
2022/07/20 12:50:53;;;;;;;7.47;6.43;;;32.60;88.30;;;;;;4854565;29;20049;-87
2022/07/20 12:53:18;;;;;;;8.00;7.00;;;32.60;88.00;;;;;;4809345;29;20069;-89
2022/07/20 12:55:44;;;;;;;8.80;6.85;;;32.50;88.40;;;;;;4818890;29;20090;-90
2022/07/20 12:58:10;;;;;;;8.48;6.47;;;32.50;88.30;;;;;;4814413;29;20049;-93
2022/07/20 13:00:36;;;;;;;8.05;6.60;;;32.10;88.50;;;;;;4801466;29;20585;-88
2022/07/20 13:03:02;;;;;;;7.10;6.40;;;32.40;89.20;;;;;;4797140;29;20070;-88
2022/07/20 13:05:27;;;;;;;8.18;6.40;;;32.40;88.10;;;;;;4827341;29;20042;-88
2022/07/20 13:07:53;;;;;;;6.97;6.25;;;32.30;88.10;;;;;;4811750;29;20058;-87
2022/07/20 13:10:19;;;;;;;7.55;6.68;;;32.10;88.40;;;;;;4826098;29;20050;-89
2022/07/20 13:12:45;;;;;;;8.02;6.00;;;32.10;89.10;;;;;;4798404;29;20078;-89
2022/07/20 13:15:10;;;;;;;7.32;6.32;;;32.20;89.30;;;;;;4802409;29;20046;-91
2022/07/20 13:17:39;;;;;;;6.78;6.10;;;31.90;89.10;;;;;;4820911;29;20081;-93
2022/07/20 13:20:08;;;;;;;8.15;6.88;;;31.90;89.50;;;;;;4832937;29;20061;-91
2022/07/20 13:22:41;;;;;;;8.93;7.10;;;32.00;89.20;;;;;;4804377;29;20080;-91
2022/07/20 13:25:10;;;;;;;8.43;6.97;;;31.90;89.40;;;;;;4800691;29;20495;-89
2022/07/20 13:27:48;;;;;;;8.20;7.18;;;32.70;90.20;;;;;;4790396;29;20038;-90